Time;durP1;ratioP1;P1;durP2;ratioP2;P2;SDS_P1;SDS_P2;PMS_P1;PMS_P2;Temp;Humidity;BMP_temperature;BMP_pressure;BME280_temperature;BME280_humidity;BME280_pressure;Samples;Min_cycle;Max_cycle;Signal;HPM_P1;HPM_P2
2023/01/02 00:01:29;;;;;;;16.23;10.70;;;14.40;57.60;;;;;;5086792;28;20451;-86
2023/01/02 00:03:57;;;;;;;15.03;10.90;;;14.30;57.90;;;;;;5064408;28;20462;-87
2023/01/02 00:06:24;;;;;;;16.77;9.50;;;14.30;58.20;;;;;;5070602;28;20466;-86
2023/01/02 00:08:51;;;;;;;13.53;9.10;;;14.30;58.20;;;;;;5055261;28;20525;-88
2023/01/02 00:11:18;;;;;;;15.07;9.77;;;14.40;58.20;;;;;;5058592;28;20511;-87
2023/01/02 00:13:46;;;;;;;13.73;9.70;;;14.50;58.00;;;;;;5052724;28;20497;-86
2023/01/02 00:16:14;;;;;;;20.77;9.80;;;14.50;57.90;;;;;;5053934;28;20998;-86
2023/01/02 00:18:41;;;;;;;19.67;10.77;;;14.50;57.80;;;;;;5072758;27;20522;-90
2023/01/02 00:21:09;;;;;;;15.63;9.80;;;14.50;57.70;;;;;;5047638;28;20872;-88
2023/01/02 00:23:36;;;;;;;13.90;9.53;;;14.40;57.30;;;;;;5091213;27;20439;-88
2023/01/02 00:26:06;;;;;;;12.60;8.80;;;13.90;59.00;;;;;;5102085;27;20470;-86
2023/01/02 00:28:33;;;;;;;14.30;9.70;;;13.60;60.00;;;;;;5086298;27;20533;-86
2023/01/02 00:31:06;;;;;;;15.43;9.00;;;13.50;60.80;;;;;;5074477;28;20456;-87
2023/01/02 00:33:35;;;;;;;14.30;8.10;;;13.70;60.30;;;;;;5070002;28;20468;-87
2023/01/02 00:36:05;;;;;;;14.33;7.07;;;14.00;59.60;;;;;;5084879;28;20439;-86
2023/01/02 00:38:32;;;;;;;13.63;8.00;;;14.20;59.20;;;;;;5067094;28;20508;-87
2023/01/02 00:40:59;;;;;;;15.37;8.80;;;14.20;59.60;;;;;;5080711;28;20941;-87
2023/01/02 00:43:26;;;;;;;14.70;9.30;;;14.20;59.30;;;;;;5074294;28;20948;-86
2023/01/02 00:45:53;;;;;;;17.10;10.00;;;14.00;59.10;;;;;;5069493;28;20478;-86
2023/01/02 00:48:21;;;;;;;16.43;10.83;;;14.00;59.00;;;;;;5088607;28;20517;-86
2023/01/02 00:50:50;;;;;;;17.87;10.20;;;14.00;58.90;;;;;;5089161;27;20447;-87
2023/01/02 00:53:17;;;;;;;15.07;10.30;;;14.00;59.10;;;;;;5061876;28;20435;-86
2023/01/02 00:55:44;;;;;;;14.93;10.00;;;14.10;58.80;;;;;;5070503;28;20858;-86
2023/01/02 00:58:12;;;;;;;15.33;9.00;;;14.20;58.50;;;;;;5107867;27;20457;-86
2023/01/02 01:00:39;;;;;;;17.03;11.13;;;14.30;58.30;;;;;;5095731;28;20439;-87
2023/01/02 01:03:07;;;;;;;13.77;9.20;;;14.30;58.00;;;;;;5074494;28;20447;-86
2023/01/02 01:05:34;;;;;;;14.33;9.10;;;14.40;57.90;;;;;;5058762;27;20534;-86
2023/01/02 01:08:02;;;;;;;15.53;10.17;;;14.30;58.30;;;;;;5072317;28;20852;-86
2023/01/02 01:10:29;;;;;;;14.33;9.37;;;14.10;58.40;;;;;;5088649;27;20449;-87
2023/01/02 01:12:57;;;;;;;19.47;10.60;;;14.00;58.70;;;;;;5070069;28;20479;-85
2023/01/02 01:15:24;;;;;;;14.73;9.37;;;14.10;58.30;;;;;;5074713;28;20542;-89
2023/01/02 01:17:51;;;;;;;18.10;9.60;;;14.20;58.20;;;;;;5055854;28;20511;-87
2023/01/02 01:20:18;;;;;;;18.60;9.40;;;14.30;58.00;;;;;;5083940;28;20439;-87
2023/01/02 01:22:45;;;;;;;16.97;9.77;;;14.20;58.20;;;;;;5069988;28;20846;-87
2023/01/02 01:25:14;;;;;;;15.53;9.53;;;14.30;58.00;;;;;;5089076;28;20501;-86
2023/01/02 01:27:41;;;;;;;18.53;10.80;;;14.40;57.80;;;;;;5070918;28;20478;-87
2023/01/02 01:30:09;;;;;;;27.67;14.67;;;14.40;57.60;;;;;;5106922;27;20783;-87
2023/01/02 01:32:36;;;;;;;23.77;12.20;;;14.40;57.50;;;;;;5088278;28;20454;-87
2023/01/02 01:35:03;;;;;;;14.40;8.93;;;14.40;57.50;;;;;;5069761;28;20481;-87
2023/01/02 01:37:30;;;;;;;30.17;13.60;;;13.80;59.00;;;;;;5079330;28;20517;-85
2023/01/02 01:39:57;;;;;;;24.63;11.73;;;13.00;61.90;;;;;;5053613;28;20457;-86
2023/01/02 01:42:31;;;;;;;13.30;8.90;;;13.00;62.50;;;;;;5069199;28;20875;-85
2023/01/02 01:44:58;;;;;;;17.17;9.60;;;13.40;61.60;;;;;;5054840;28;20952;-85
2023/01/02 01:47:32;;;;;;;13.13;10.10;;;13.70;60.60;;;;;;5070971;28;20551;-86
2023/01/02 01:50:05;;;;;;;13.77;9.47;;;13.70;59.90;;;;;;5055352;28;20512;-86
2023/01/02 01:52:34;;;;;;;16.53;11.00;;;13.80;59.50;;;;;;5072410;28;20535;-89
2023/01/02 01:55:07;;;;;;;19.23;11.20;;;14.00;59.20;;;;;;5068333;28;20834;-86
2023/01/02 01:57:39;;;;;;;15.77;10.23;;;14.10;58.90;;;;;;5089130;28;20841;-85
2023/01/02 02:00:08;;;;;;;14.70;10.17;;;14.00;58.80;;;;;;5052631;28;20451;-87
2023/01/02 02:02:38;;;;;;;17.23;10.23;;;13.90;58.70;;;;;;5073841;28;20451;-86
2023/01/02 02:05:06;;;;;;;15.67;10.37;;;13.80;59.10;;;;;;5050298;28;20454;-86
2023/01/02 02:07:37;;;;;;;25.53;12.23;;;13.70;58.90;;;;;;5070678;28;20975;-86
2023/01/02 02:10:07;;;;;;;19.97;12.33;;;13.90;58.60;;;;;;5054845;28;20450;-86
2023/01/02 02:12:35;;;;;;;19.70;11.63;;;13.60;59.20;;;;;;5088893;28;20445;-87
2023/01/02 02:15:03;;;;;;;22.67;10.90;;;12.90;61.30;;;;;;5072076;28;20454;-87
2023/01/02 02:17:44;;;;;;;21.50;12.23;;;12.90;62.30;;;;;;5071123;28;20454;-87
2023/01/02 02:20:30;;;;;;;17.37;10.57;;;13.10;61.20;;;;;;5054893;28;20447;-86
2023/01/02 02:23:34;;;;;;;19.90;11.63;;;13.40;60.80;;;;;;5071934;28;20450;-87
2023/01/02 02:26:27;;;;;;;17.23;9.77;;;13.60;59.90;;;;;;5050898;28;20983;-86
2023/01/02 02:29:41;;;;;;;16.73;9.63;;;13.70;59.10;;;;;;5084066;28;21005;-87
2023/01/02 02:32:23;;;;;;;17.53;10.60;;;13.60;59.80;;;;;;5046383;28;20566;-90
2023/01/02 02:34:56;;;;;;;23.10;12.37;;;13.70;59.90;;;;;;5090036;28;20612;-86
2023/01/02 02:37:29;;;;;;;24.87;12.97;;;13.80;59.60;;;;;;5070503;28;20536;-87
2023/01/02 02:40:06;;;;;;;30.20;14.43;;;13.70;59.80;;;;;;5088702;28;20550;-91
2023/01/02 02:42:44;;;;;;;31.07;14.50;;;13.80;60.00;;;;;;5066364;28;20466;-87
2023/01/02 02:45:19;;;;;;;18.87;11.17;;;14.00;59.40;;;;;;5058176;28;20431;-88
2023/01/02 02:47:55;;;;;;;23.07;11.30;;;14.10;59.00;;;;;;5085965;28;20473;-86
2023/01/02 02:50:30;;;;;;;17.17;10.60;;;14.10;58.80;;;;;;5054636;28;20441;-87
2023/01/02 02:53:08;;;;;;;18.77;9.83;;;14.00;58.90;;;;;;5066951;28;20438;-91
2023/01/02 02:55:40;;;;;;;16.20;10.27;;;14.00;58.90;;;;;;5059366;28;20534;-86
2023/01/02 02:58:08;;;;;;;16.37;8.80;;;14.00;59.10;;;;;;5087744;28;20557;-87
2023/01/02 03:00:35;;;;;;;25.37;11.77;;;14.10;59.10;;;;;;5086267;28;20936;-87
2023/01/02 03:03:14;;;;;;;21.23;10.53;;;14.10;58.50;;;;;;5072873;28;20807;-87
2023/01/02 03:05:47;;;;;;;15.13;10.03;;;13.90;58.90;;;;;;5069950;28;20530;-87
2023/01/02 03:08:24;;;;;;;16.20;10.27;;;13.60;59.30;;;;;;5075162;28;20569;-86
2023/01/02 03:10:57;;;;;;;29.40;14.70;;;13.70;59.40;;;;;;5108048;27;20473;-87
2023/01/02 03:13:31;;;;;;;27.00;17.40;;;13.80;58.70;;;;;;5070372;28;20455;-87
2023/01/02 03:16:03;;;;;;;22.07;13.43;;;13.60;59.50;;;;;;5071099;28;20819;-86
2023/01/02 03:18:35;;;;;;;27.70;14.87;;;13.00;61.30;;;;;;5092875;28;21007;-88
2023/01/02 03:21:06;;;;;;;25.13;13.20;;;13.30;61.10;;;;;;5071132;28;20555;-87
2023/01/02 03:23:41;;;;;;;27.50;14.10;;;13.20;60.50;;;;;;5074736;27;20990;-87
2023/01/02 03:26:08;;;;;;;26.33;13.30;;;13.40;60.00;;;;;;5057542;28;20442;-86
2023/01/02 03:28:40;;;;;;;26.83;13.57;;;13.60;59.80;;;;;;5055021;28;20455;-87
2023/01/02 03:31:13;;;;;;;19.53;12.30;;;13.40;59.60;;;;;;5093764;28;20442;-88
2023/01/02 03:33:46;;;;;;;19.33;11.60;;;13.50;59.60;;;;;;5057920;27;20476;-88
2023/01/02 03:36:17;;;;;;;30.73;13.77;;;13.60;59.00;;;;;;5080731;28;20471;-86
2023/01/02 03:38:51;;;;;;;23.87;11.87;;;13.30;59.90;;;;;;5064678;27;20508;-87
2023/01/02 03:41:23;;;;;;;23.93;11.77;;;13.50;59.90;;;;;;5063913;28;20829;-86
2023/01/02 03:43:53;;;;;;;22.83;12.73;;;13.40;60.00;;;;;;5064945;27;20478;-86
2023/01/02 03:46:26;;;;;;;19.40;11.20;;;13.60;59.90;;;;;;5056663;28;20478;-86
2023/01/02 03:49:00;;;;;;;20.50;11.73;;;13.70;59.40;;;;;;5074819;28;20451;-90
2023/01/02 03:51:27;;;;;;;34.70;16.37;;;13.80;59.20;;;;;;5056086;28;20446;-90
2023/01/02 03:53:54;;;;;;;93.33;28.80;;;13.90;58.80;;;;;;5053855;28;20443;-86
2023/01/02 03:56:28;;;;;;;54.60;21.47;;;13.90;58.40;;;;;;5056959;28;20528;-86
2023/01/02 03:58:58;;;;;;;26.23;12.77;;;13.70;58.40;;;;;;5066298;28;20438;-86
2023/01/02 04:01:32;;;;;;;24.50;11.47;;;13.40;59.80;;;;;;5067930;28;20953;-89
2023/01/02 04:04:07;;;;;;;21.70;11.70;;;13.20;61.10;;;;;;5083931;28;21034;-86
2023/01/02 04:06:38;;;;;;;36.37;17.33;;;13.40;60.50;;;;;;5054785;28;20462;-87
2023/01/02 04:09:11;;;;;;;40.60;20.77;;;13.60;59.90;;;;;;5073218;28;20459;-86
2023/01/02 04:11:42;;;;;;;44.67;25.40;;;13.60;59.90;;;;;;5055701;28;20451;-87
2023/01/02 04:14:18;;;;;;;55.23;25.70;;;13.70;59.50;;;;;;5057014;28;20488;-86
2023/01/02 04:16:48;;;;;;;72.33;30.23;;;13.90;59.10;;;;;;5088418;27;21004;-91
2023/01/02 04:19:21;;;;;;;60.03;27.97;;;13.90;58.90;;;;;;5069473;28;20443;-86
2023/01/02 04:21:51;;;;;;;45.00;22.10;;;14.00;58.80;;;;;;5072642;28;20971;-90
2023/01/02 04:24:24;;;;;;;51.03;20.30;;;13.90;59.00;;;;;;5051575;28;20534;-88
2023/01/02 04:26:56;;;;;;;41.50;17.70;;;14.00;58.70;;;;;;5072595;28;20932;-87
2023/01/02 04:29:24;;;;;;;26.27;14.70;;;14.00;58.50;;;;;;5070501;28;20466;-86
2023/01/02 04:31:57;;;;;;;16.97;9.83;;;14.00;58.60;;;;;;5079511;28;20514;-90
2023/01/02 04:34:27;;;;;;;33.07;14.73;;;14.00;58.50;;;;;;5086773;28;20463;-87
2023/01/02 04:36:54;;;;;;;37.40;18.90;;;13.90;58.90;;;;;;5066935;28;20487;-87
2023/01/02 04:39:23;;;;;;;28.50;15.60;;;13.70;59.50;;;;;;5068721;28;20443;-86
2023/01/02 04:41:50;;;;;;;26.70;15.20;;;13.60;59.70;;;;;;5071826;27;20446;-87
2023/01/02 04:44:17;;;;;;;25.33;13.77;;;13.60;59.60;;;;;;5062661;28;20526;-87
2023/01/02 04:46:44;;;;;;;17.60;10.53;;;13.50;59.70;;;;;;5072953;28;20463;-86
2023/01/02 04:49:11;;;;;;;15.80;11.30;;;13.20;59.80;;;;;;5058526;28;20490;-89
2023/01/02 04:51:39;;;;;;;17.80;10.70;;;13.10;60.60;;;;;;5088392;28;20533;-88
2023/01/02 04:54:06;;;;;;;22.60;11.30;;;13.30;60.10;;;;;;5048294;28;20527;-87
2023/01/02 04:56:33;;;;;;;18.23;10.93;;;13.40;59.50;;;;;;5061783;28;20500;-87
2023/01/02 04:59:00;;;;;;;23.07;13.50;;;13.30;60.10;;;;;;5088676;28;20446;-87
2023/01/02 05:01:27;;;;;;;18.30;11.03;;;13.10;60.60;;;;;;5075043;28;20437;-87
2023/01/02 05:03:54;;;;;;;28.63;16.77;;;13.10;61.10;;;;;;5063619;28;20458;-89
2023/01/02 05:06:21;;;;;;;17.03;11.23;;;13.00;61.00;;;;;;5053794;28;20458;-90
2023/01/02 05:08:49;;;;;;;15.00;9.00;;;12.70;62.30;;;;;;5054237;28;20899;-89
2023/01/02 05:11:19;;;;;;;11.10;7.20;;;12.50;63.10;;;;;;5057020;28;21014;-89
2023/01/02 05:13:47;;;;;;;13.60;9.10;;;12.30;64.00;;;;;;5054805;28;20437;-88
2023/01/02 05:16:14;;;;;;;20.93;13.03;;;12.50;63.90;;;;;;5087537;28;20443;-87
2023/01/02 05:18:41;;;;;;;28.67;16.60;;;12.90;62.70;;;;;;5077720;27;20538;-86
2023/01/02 05:23:47;;;;;;;23.30;13.30;;;13.20;62.00;;;;;;5053065;28;20446;-91
2023/01/02 05:24:00;;;;;;;22.03;11.67;;;13.10;61.50;;;;;;5066660;28;20446;-86
2023/01/02 05:26:29;;;;;;;22.43;12.40;;;13.00;61.60;;;;;;5056225;28;20524;-87
2023/01/02 05:28:56;;;;;;;22.20;11.70;;;12.80;61.30;;;;;;5080002;28;20963;-87
2023/01/02 05:31:23;;;;;;;18.83;11.93;;;12.70;61.80;;;;;;5095440;27;20440;-86
2023/01/02 05:33:52;;;;;;;14.67;10.70;;;13.00;61.00;;;;;;5087484;28;21789;-87
2023/01/02 05:36:20;;;;;;;20.07;10.50;;;13.10;60.40;;;;;;5054711;28;20451;-87
2023/01/02 05:38:47;;;;;;;20.53;9.90;;;13.00;61.00;;;;;;5062518;28;20806;-87
2023/01/02 05:41:16;;;;;;;18.30;10.13;;;12.80;61.50;;;;;;5073421;28;20441;-90
2023/01/02 05:43:43;;;;;;;24.40;13.70;;;12.90;61.90;;;;;;5077973;27;20499;-87
2023/01/02 05:46:12;;;;;;;18.90;11.60;;;13.20;61.10;;;;;;5076752;28;20447;-87
2023/01/02 05:48:39;;;;;;;18.90;10.90;;;13.10;61.70;;;;;;5083365;28;20491;-88
2023/01/02 05:51:08;;;;;;;17.47;13.43;;;13.30;60.90;;;;;;5093998;28;20443;-87
2023/01/02 05:53:35;;;;;;;18.93;12.60;;;13.40;60.50;;;;;;5069153;28;20893;-87
2023/01/02 05:56:07;;;;;;;18.23;10.77;;;13.40;60.00;;;;;;5072567;28;20447;-88
2023/01/02 05:58:37;;;;;;;15.53;11.27;;;13.20;60.30;;;;;;5071543;28;20448;-88
2023/01/02 06:01:05;;;;;;;15.30;10.40;;;13.30;60.40;;;;;;5055664;28;20454;-87
2023/01/02 06:03:32;;;;;;;14.60;11.67;;;13.40;59.80;;;;;;5104176;28;21001;-88
2023/01/02 06:06:03;;;;;;;23.10;13.03;;;13.10;60.60;;;;;;5078370;28;20812;-87
2023/01/02 06:08:30;;;;;;;23.90;13.67;;;13.10;60.80;;;;;;5051140;28;20464;-87
2023/01/02 06:10:57;;;;;;;18.00;10.00;;;13.20;60.70;;;;;;5058103;28;20444;-87
2023/01/02 06:13:24;;;;;;;18.40;10.47;;;13.40;59.90;;;;;;5070351;28;20462;-88
2023/01/02 06:15:59;;;;;;;25.63;10.53;;;13.50;59.30;;;;;;5054963;28;20458;-88
2023/01/02 06:18:28;;;;;;;16.07;12.13;;;13.60;58.90;;;;;;5055666;28;20475;-88
2023/01/02 06:20:58;;;;;;;16.73;12.60;;;13.60;59.10;;;;;;5059687;28;20468;-87
2023/01/02 06:23:25;;;;;;;23.93;12.47;;;13.60;58.90;;;;;;5069764;28;20445;-87
2023/01/02 06:25:52;;;;;;;17.20;11.30;;;13.60;59.00;;;;;;5056126;28;20455;-86
2023/01/02 06:28:19;;;;;;;20.60;12.50;;;13.50;59.20;;;;;;5070331;28;20473;-87
2023/01/02 06:30:46;;;;;;;17.83;11.87;;;13.60;59.10;;;;;;5071712;28;20447;-88
2023/01/02 06:33:15;;;;;;;18.47;11.73;;;13.50;58.70;;;;;;5071734;28;21024;-87
2023/01/02 06:35:41;;;;;;;21.30;10.90;;;13.30;59.20;;;;;;5070083;28;21042;-86
2023/01/02 06:38:08;;;;;;;18.97;11.43;;;13.20;59.90;;;;;;5094824;28;20454;-88
2023/01/02 06:40:35;;;;;;;23.57;12.50;;;12.80;60.90;;;;;;5072264;28;20831;-88
2023/01/02 06:43:02;;;;;;;20.70;12.87;;;13.00;60.90;;;;;;5088618;28;20453;-89
2023/01/02 06:45:29;;;;;;;21.03;14.23;;;13.20;60.00;;;;;;5061586;28;20538;-87
2023/01/02 06:47:59;;;;;;;25.30;14.70;;;13.30;59.40;;;;;;5078613;27;20465;-87
2023/01/02 06:50:27;;;;;;;13.47;9.30;;;13.40;59.10;;;;;;5096073;28;20575;-87
2023/01/02 06:52:54;;;;;;;18.20;9.20;;;13.40;58.70;;;;;;5077565;27;22003;-88
2023/01/02 06:55:21;;;;;;;11.57;8.40;;;13.40;58.80;;;;;;5076807;28;20968;-87
2023/01/02 06:57:48;;;;;;;18.73;11.50;;;13.30;59.00;;;;;;5099689;27;20469;-87
2023/01/02 07:00:17;;;;;;;18.13;10.37;;;13.30;59.40;;;;;;5059147;27;20855;-90
2023/01/02 07:02:44;;;;;;;16.33;10.47;;;13.30;59.70;;;;;;5082383;27;20458;-88
2023/01/02 07:05:11;;;;;;;219.43;64.83;;;13.40;59.60;;;;;;5059397;27;21053;-88
2023/01/02 07:07:42;;;;;;;118.50;38.67;;;13.40;59.40;;;;;;5072778;27;20999;-88
2023/01/02 07:10:09;;;;;;;21.67;11.50;;;13.50;59.80;;;;;;5057247;28;20467;-86
2023/01/02 07:12:37;;;;;;;17.13;11.67;;;13.20;59.60;;;;;;5056466;28;20447;-87
2023/01/02 07:15:06;;;;;;;23.27;12.47;;;12.70;61.10;;;;;;5060349;27;21023;-90
2023/01/02 07:17:33;;;;;;;25.13;12.27;;;12.80;61.90;;;;;;5075430;28;20461;-89
2023/01/02 07:20:00;;;;;;;31.80;14.70;;;13.10;60.40;;;;;;5076281;28;20463;-87
2023/01/02 07:22:27;;;;;;;26.53;14.67;;;13.00;59.90;;;;;;5080434;28;20442;-86
2023/01/02 07:24:56;;;;;;;25.90;13.73;;;13.20;59.90;;;;;;5062534;28;20959;-88
2023/01/02 07:27:23;;;;;;;25.90;13.20;;;13.30;59.40;;;;;;5075498;28;20890;-88
2023/01/02 07:29:52;;;;;;;23.17;12.70;;;13.40;59.10;;;;;;5082331;27;20460;-87
2023/01/02 07:32:20;;;;;;;20.77;11.97;;;13.20;59.30;;;;;;5061057;27;20475;-89
2023/01/02 07:34:48;;;;;;;27.13;14.33;;;13.20;59.20;;;;;;5058624;28;20479;-86
2023/01/02 07:37:15;;;;;;;16.07;9.97;;;13.30;59.20;;;;;;5074774;28;20470;-86
2023/01/02 07:39:42;;;;;;;11.70;9.07;;;13.40;58.80;;;;;;5071214;27;20454;-86
2023/01/02 07:42:11;;;;;;;19.93;9.63;;;13.20;59.10;;;;;;5057535;28;20454;-87
2023/01/02 07:44:38;;;;;;;85.03;43.80;;;13.20;59.50;;;;;;5055427;27;20447;-87
2023/01/02 07:47:05;;;;;;;24.00;14.13;;;13.30;59.60;;;;;;5056760;28;20512;-88
2023/01/02 07:49:32;;;;;;;25.43;15.17;;;13.40;59.50;;;;;;5056366;28;20452;-88
2023/01/02 07:51:59;;;;;;;18.53;11.80;;;13.50;59.30;;;;;;5079485;27;20450;-88
2023/01/02 07:54:26;;;;;;;25.87;11.73;;;13.50;59.00;;;;;;5073915;28;20530;-90
2023/01/02 07:56:53;;;;;;;21.33;13.33;;;13.50;59.10;;;;;;5077608;28;20471;-88
2023/01/02 07:59:21;;;;;;;18.40;9.93;;;13.50;59.30;;;;;;5073698;28;20453;-90
2023/01/02 08:01:48;;;;;;;17.50;12.13;;;13.60;58.60;;;;;;5064032;28;20965;-88
2023/01/02 08:04:15;;;;;;;18.90;12.10;;;13.50;58.70;;;;;;5082536;28;20461;-87
2023/01/02 08:06:42;;;;;;;14.23;11.10;;;13.50;58.70;;;;;;5053532;28;20479;-88
2023/01/02 08:09:09;;;;;;;15.97;10.80;;;13.40;59.20;;;;;;5067355;28;20471;-92
2023/01/02 08:11:37;;;;;;;30.70;18.40;;;13.30;59.30;;;;;;5054098;28;20466;-87
2023/01/02 08:14:05;;;;;;;25.90;16.63;;;13.30;59.40;;;;;;5055472;28;20967;-87
2023/01/02 08:16:34;;;;;;;26.70;18.90;;;12.80;61.30;;;;;;5062014;28;20554;-88
2023/01/02 08:19:01;;;;;;;22.00;16.70;;;12.80;61.60;;;;;;5060380;28;20982;-88
2023/01/02 08:21:28;;;;;;;22.83;13.73;;;13.00;60.80;;;;;;5093243;27;21034;-87
2023/01/02 08:23:55;;;;;;;20.33;12.47;;;13.10;60.10;;;;;;5079782;27;20436;-88
2023/01/02 08:26:22;;;;;;;23.30;13.30;;;13.10;60.20;;;;;;5072878;28;20435;-88
2023/01/02 08:28:49;;;;;;;49.20;28.07;;;12.90;60.30;;;;;;5093260;27;20497;-87
2023/01/02 08:31:19;;;;;;;47.37;26.13;;;12.80;60.70;;;;;;5057446;28;20457;-88
2023/01/02 08:33:48;;;;;;;39.77;24.77;;;12.90;60.80;;;;;;5061674;28;20458;-88
2023/01/02 08:36:15;;;;;;;71.50;43.50;;;13.10;60.10;;;;;;5094536;27;20442;-88
2023/01/02 08:38:42;;;;;;;43.40;25.70;;;13.10;60.20;;;;;;5074154;27;20440;-88
2023/01/02 08:41:09;;;;;;;147.83;59.37;;;13.10;59.90;;;;;;5056911;28;20451;-90
2023/01/02 08:43:37;;;;;;;56.37;34.27;;;12.90;60.80;;;;;;5058395;28;20534;-88
2023/01/02 08:46:05;;;;;;;54.63;30.37;;;12.40;62.30;;;;;;5054647;27;20438;-88
2023/01/02 08:48:32;;;;;;;38.63;22.47;;;12.50;62.30;;;;;;5055094;28;20558;-88
2023/01/02 08:51:01;;;;;;;32.93;18.93;;;12.80;61.60;;;;;;5075442;27;20573;-87
2023/01/02 08:53:28;;;;;;;31.53;17.13;;;13.00;60.70;;;;;;5074926;28;20446;-88
2023/01/02 08:55:55;;;;;;;31.90;19.43;;;12.90;60.80;;;;;;5078904;27;20447;-89
2023/01/02 08:58:22;;;;;;;24.03;17.20;;;13.00;60.70;;;;;;5053380;28;21003;-89
2023/01/02 09:00:52;;;;;;;30.97;17.93;;;12.90;60.50;;;;;;5075350;27;20460;-88
2023/01/02 09:03:19;;;;;;;49.10;28.13;;;12.90;60.60;;;;;;5053571;28;20460;-87
2023/01/02 09:05:46;;;;;;;50.33;25.83;;;12.60;62.00;;;;;;5070439;28;20474;-87
2023/01/02 09:08:14;;;;;;;43.70;23.30;;;12.80;61.80;;;;;;5071901;28;20479;-87
2023/01/02 09:10:41;;;;;;;34.50;21.20;;;13.10;61.30;;;;;;5105433;28;20467;-86
2023/01/02 09:13:08;;;;;;;40.47;24.67;;;13.20;60.90;;;;;;5081375;28;20461;-88
2023/01/02 09:15:35;;;;;;;42.87;23.83;;;13.40;60.80;;;;;;5055162;28;20455;-88
2023/01/02 09:18:02;;;;;;;56.10;32.30;;;13.40;60.50;;;;;;5055402;28;20466;-88
2023/01/02 09:20:29;;;;;;;43.50;26.77;;;13.50;60.50;;;;;;5069015;28;20443;-89
2023/01/02 09:22:56;;;;;;;47.73;28.67;;;13.60;60.50;;;;;;5071416;27;20543;-88
2023/01/02 09:25:24;;;;;;;54.50;30.23;;;13.50;60.80;;;;;;5055661;28;20499;-87
2023/01/02 09:27:51;;;;;;;31.23;18.57;;;13.60;60.90;;;;;;5055876;27;20458;-89
2023/01/02 09:30:19;;;;;;;32.90;19.13;;;13.60;60.80;;;;;;5055142;28;20978;-88
2023/01/02 09:32:47;;;;;;;31.53;18.20;;;13.70;61.20;;;;;;5072444;28;20458;-88
2023/01/02 09:35:14;;;;;;;26.87;17.60;;;13.50;60.60;;;;;;5070745;28;20443;-89
2023/01/02 09:37:41;;;;;;;23.60;13.77;;;13.50;61.20;;;;;;5070037;28;20455;-87
2023/01/02 09:40:13;;;;;;;21.13;13.07;;;13.50;61.00;;;;;;5069136;28;20514;-88
2023/01/02 09:42:43;;;;;;;19.77;12.83;;;13.40;60.70;;;;;;5087179;28;20449;-87
2023/01/02 09:45:12;;;;;;;22.77;13.03;;;13.50;60.90;;;;;;5066448;28;21005;-88
2023/01/02 09:47:41;;;;;;;19.30;14.33;;;13.50;61.10;;;;;;5058465;28;20497;-89
2023/01/02 09:50:15;;;;;;;19.43;13.00;;;13.50;61.10;;;;;;5061650;28;21044;-89
2023/01/02 09:52:45;;;;;;;17.77;10.60;;;13.60;61.60;;;;;;5066802;28;20442;-86
2023/01/02 09:55:15;;;;;;;18.50;11.90;;;13.60;61.90;;;;;;5081126;28;20707;-89
2023/01/02 09:57:51;;;;;;;21.30;14.77;;;13.80;61.40;;;;;;5079335;28;20541;-85
2023/01/02 10:00:20;;;;;;;24.10;15.10;;;13.90;61.00;;;;;;5059778;28;20441;-89
2023/01/02 10:03:00;;;;;;;23.20;14.40;;;13.80;61.60;;;;;;5073385;28;20451;-87
2023/01/02 10:05:48;;;;;;;44.70;26.93;;;13.60;61.90;;;;;;5053558;28;20442;-88
2023/01/02 10:08:26;;;;;;;26.30;16.40;;;13.40;63.00;;;;;;5051631;28;20595;-88
2023/01/02 10:11:02;;;;;;;24.53;17.37;;;13.50;63.10;;;;;;5049594;27;20804;-89
2023/01/02 10:13:36;;;;;;;17.57;10.10;;;13.50;63.10;;;;;;5078608;28;20935;-89
2023/01/02 10:16:06;;;;;;;11.97;8.47;;;13.70;62.10;;;;;;5066746;27;20453;-89
2023/01/02 10:18:38;;;;;;;14.97;11.73;;;13.80;61.60;;;;;;5077464;28;20547;-89
2023/01/02 10:21:11;;;;;;;9.93;6.47;;;14.10;62.00;;;;;;5060905;27;20500;-89
2023/01/02 10:23:42;;;;;;;28.93;17.87;;;14.20;59.00;;;;;;5068678;28;20445;-87
2023/01/02 10:26:17;;;;;;;32.63;19.70;;;14.20;60.30;;;;;;5080172;27;20502;-89
2023/01/02 10:28:56;;;;;;;26.63;16.13;;;14.20;60.60;;;;;;5071304;27;20484;-88
2023/01/02 10:31:27;;;;;;;8.77;5.53;;;14.50;60.20;;;;;;5070201;28;20472;-89
2023/01/02 10:33:58;;;;;;;30.57;19.37;;;14.70;58.90;;;;;;5075132;27;20458;-88
2023/01/02 10:36:26;;;;;;;16.70;10.37;;;14.70;59.70;;;;;;5109320;27;20538;-87
2023/01/02 10:38:56;;;;;;;19.87;12.20;;;14.90;58.80;;;;;;5112405;27;20450;-89
2023/01/02 10:41:25;;;;;;;13.90;7.70;;;15.00;58.80;;;;;;5079292;28;20443;-89
2023/01/02 10:43:57;;;;;;;12.63;9.43;;;15.20;57.80;;;;;;5054030;27;20458;-89
2023/01/02 10:46:29;;;;;;;12.80;7.90;;;15.30;55.60;;;;;;5075162;28;21028;-89
2023/01/02 10:48:57;;;;;;;19.43;11.10;;;15.50;56.50;;;;;;5076724;28;20450;-88
2023/01/02 10:51:24;;;;;;;21.97;13.73;;;15.70;56.40;;;;;;5093791;28;20502;-89
2023/01/02 10:54:02;;;;;;;19.70;10.73;;;15.90;56.20;;;;;;5069723;27;20449;-89
2023/01/02 10:56:32;;;;;;;12.80;7.20;;;15.90;56.10;;;;;;5060424;28;20542;-88
2023/01/02 10:59:01;;;;;;;8.50;4.97;;;15.90;55.20;;;;;;5096254;27;20439;-90
2023/01/02 11:01:28;;;;;;;11.97;5.90;;;16.00;53.40;;;;;;5095403;28;20440;-89
2023/01/02 11:04:13;;;;;;;8.43;4.83;;;16.20;53.30;;;;;;5067412;28;20443;-87
2023/01/02 11:06:50;;;;;;;7.50;5.13;;;16.40;51.80;;;;;;5070551;28;20455;-89
2023/01/02 11:09:20;;;;;;;11.00;6.67;;;16.40;52.20;;;;;;5076275;28;20942;-89
2023/01/02 11:11:52;;;;;;;15.30;9.07;;;16.60;51.80;;;;;;5077065;28;20442;-90
2023/01/02 11:14:24;;;;;;;12.37;6.47;;;16.70;52.20;;;;;;5060132;28;20523;-89
2023/01/02 11:16:51;;;;;;;6.93;4.53;;;16.80;51.80;;;;;;5072590;27;20452;-88
2023/01/02 11:19:21;;;;;;;6.50;2.63;;;16.90;49.50;;;;;;5061080;28;20446;-88
2023/01/02 11:21:49;;;;;;;5.63;3.23;;;16.80;48.60;;;;;;5055253;27;20508;-88
2023/01/02 11:24:21;;;;;;;6.10;2.83;;;16.90;48.60;;;;;;5093132;28;20442;-87
2023/01/02 11:26:49;;;;;;;5.43;2.60;;;17.10;49.40;;;;;;5071525;28;20800;-89
2023/01/02 11:29:25;;;;;;;6.10;2.20;;;17.10;47.60;;;;;;5064708;28;20481;-88
2023/01/02 11:31:55;;;;;;;5.23;2.50;;;17.20;47.50;;;;;;5059914;27;20533;-88
2023/01/02 11:34:25;;;;;;;9.13;2.47;;;17.30;47.60;;;;;;5073887;28;20435;-89
2023/01/02 11:37:04;;;;;;;4.37;2.10;;;17.30;46.60;;;;;;5079845;28;20508;-89
2023/01/02 11:39:33;;;;;;;5.10;2.17;;;17.40;46.20;;;;;;5089423;28;20435;-88
2023/01/02 11:45:02;;;;;;;8.83;3.30;;;17.80;45.90;;;;;;5056009;28;20438;-88
2023/01/02 11:47:33;;;;;;;5.00;2.37;;;18.10;45.80;;;;;;5070016;28;20471;-88
2023/01/02 11:50:02;;;;;;;6.37;2.37;;;18.20;45.40;;;;;;5074017;27;20474;-89
2023/01/02 11:52:35;;;;;;;6.93;2.70;;;18.40;45.60;;;;;;5074592;28;20442;-89
2023/01/02 11:55:13;;;;;;;3.30;2.57;;;18.40;44.70;;;;;;5064458;28;20454;-90
2023/01/02 11:57:47;;;;;;;4.83;1.90;;;18.40;44.70;;;;;;5061341;28;20506;-88
2023/01/02 12:00:18;;;;;;;3.83;2.17;;;18.50;45.00;;;;;;5075228;28;20446;-89
2023/01/02 12:02:46;;;;;;;7.07;2.73;;;18.70;43.90;;;;;;5071392;28;20459;-88
2023/01/02 12:05:16;;;;;;;6.43;3.10;;;18.70;44.90;;;;;;5075804;28;20977;-89
2023/01/02 12:07:46;;;;;;;5.83;2.47;;;18.60;44.50;;;;;;5072503;28;20541;-89
2023/01/02 12:10:33;;;;;;;4.80;2.53;;;18.60;44.70;;;;;;5090541;28;20457;-90
2023/01/02 12:13:16;;;;;;;19.80;10.30;;;18.50;44.40;;;;;;5058578;28;20435;-88
2023/01/02 12:15:59;;;;;;;5.20;3.97;;;18.40;45.20;;;;;;5080118;28;20956;-89
2023/01/02 12:18:41;;;;;;;13.87;7.30;;;18.20;44.40;;;;;;5047266;28;20473;-88
2023/01/02 12:21:20;;;;;;;7.30;2.60;;;18.20;44.80;;;;;;5072188;28;20997;-89
2023/01/02 12:24:04;;;;;;;4.77;2.27;;;18.40;45.40;;;;;;5105791;27;20463;-89
2023/01/02 12:26:38;;;;;;;9.17;2.50;;;18.40;44.80;;;;;;5053760;28;20459;-91
2023/01/02 12:29:30;;;;;;;15.93;3.00;;;18.60;45.10;;;;;;5071259;28;20435;-89
2023/01/02 12:32:27;;;;;;;5.93;2.40;;;18.60;44.80;;;;;;5062666;27;20470;-89
2023/01/02 12:35:12;;;;;;;5.00;2.47;;;18.60;44.70;;;;;;5049826;27;20455;-89
2023/01/02 12:37:48;;;;;;;6.50;2.23;;;18.60;44.80;;;;;;5072346;28;20459;-89
2023/01/02 12:40:43;;;;;;;8.20;3.40;;;18.50;44.80;;;;;;5074112;28;20542;-88
2023/01/02 12:43:34;;;;;;;12.40;3.97;;;18.40;45.00;;;;;;5056871;27;21025;-89
2023/01/02 12:46:14;;;;;;;5.50;2.40;;;18.30;45.40;;;;;;5073115;28;20612;-88
2023/01/02 12:49:00;;;;;;;5.60;2.10;;;18.40;45.50;;;;;;5065795;28;20439;-88
2023/01/02 12:51:33;;;;;;;5.93;2.73;;;18.40;45.10;;;;;;5057175;28;21194;-89